Payne, Ohio
Current Conditions -  °F | °C
As of 1:35 PM on Sunday 23 Nov 2014 (Local Time) from KGWB Reporting Station
Scattered Clouds Scattered Clouds  
Wind Chill: 13°   Ceiling: Unl
Heat Index: 13°   Visibility: 10mi
Dew Point:   Wind: 5mph
Humidity: 67%   Direction: 140°SE
Pressure: 29.72"   Gusts: NA
Location:  41.08°N, 84.73°W
Report Text: KGWB 231835Z AUTO 14004KT 10SM SCT065 SCT120 13/07 A2972 RMK AO2
Loading
Personal Weather Stations






























Interactive Weather Map New forecast layout! Learn more

10-Day Weather Forecast

Advertisements
Track Severe Weather on mobile